Aviation Digital Data Service (ADDS)

Output produced by METARs form (1124 UTC 17 June 2019)
found at http://www.aviationweather.gov/metar/data/
 
METAR text: HSSS 171030Z 19010KT 9999 FEW050 39/12 Q1011 NOSIG
Conditions at: HSSS (KHARTOUM (CIV/MI, SD) observed 1030 UTC 17 June 2019
Temperature: 39.0°C (102°F)
Dewpoint: 12.0°C (54°F) [RH = 20%]
Pressure (altimeter): 29.85 inches Hg (1011.0 mb)
Winds: from the S (190 degrees) at 12 MPH (10 knots; 5.1 m/s)
Visibility: 6 or more miles (10+ km)
Ceiling: at least 12,000 feet AGL
Clouds: few clouds at 5000 feet AGL
Weather: no significant weather observed at this time

METAR text: HSSS 171000Z 26011KT CAVOK 39/11 Q1012 NOSIG
Conditions at: HSSS (KHARTOUM (CIV/MI, SD) observed 1000 UTC 17 June 2019
Temperature: 39.0°C (102°F)
Dewpoint: 11.0°C (52°F) [RH = 19%]
Pressure (altimeter): 29.88 inches Hg (1012.0 mb)
Winds: from the W (260 degrees) at 13 MPH (11 knots; 5.7 m/s)
Visibility: 6 or more miles (10+ km)
Ceiling: ceiling and visibility are OK
Clouds: unknown
Weather: no significant weather observed at this time

METAR text: HSSS 170930Z 24010KT CAVOK 39/14 Q1012 NOSIG
Conditions at: HSSS (KHARTOUM (CIV/MI, SD) observed 0930 UTC 17 June 2019
Temperature: 39.0°C (102°F)
Dewpoint: 14.0°C (57°F) [RH = 23%]
Pressure (altimeter): 29.88 inches Hg (1012.0 mb)
Winds: from the WSW (240 degrees) at 12 MPH (10 knots; 5.1 m/s)
Visibility: 6 or more miles (10+ km)
Ceiling: ceiling and visibility are OK
Clouds: unknown
Weather: no significant weather observed at this time

METAR text: HSSS 170900Z 19008KT CAVOK 38/14 Q1012 NOSIG
Conditions at: HSSS (KHARTOUM (CIV/MI, SD) observed 0900 UTC 17 June 2019
Temperature: 38.0°C (100°F)
Dewpoint: 14.0°C (57°F) [RH = 24%]
Pressure (altimeter): 29.88 inches Hg (1012.0 mb)
Winds: from the S (190 degrees) at 9 MPH (8 knots; 4.1 m/s)
Visibility: 6 or more miles (10+ km)
Ceiling: ceiling and visibility are OK
Clouds: unknown
Weather: no significant weather observed at this time

METAR text: HSSS 170830Z 22012KT CAVOK 38/14 Q1012 NOSIG
Conditions at: HSSS (KHARTOUM (CIV/MI, SD) observed 0830 UTC 17 June 2019
Temperature: 38.0°C (100°F)
Dewpoint: 14.0°C (57°F) [RH = 24%]
Pressure (altimeter): 29.88 inches Hg (1012.0 mb)
Winds: from the SW (220 degrees) at 14 MPH (12 knots; 6.2 m/s)
Visibility: 6 or more miles (10+ km)
Ceiling: ceiling and visibility are OK
Clouds: unknown
Weather: no significant weather observed at this time

METAR text: HSSS 170800Z 19013KT CAVOK 37/15 Q1012 NOSIG
Conditions at: HSSS (KHARTOUM (CIV/MI, SD) observed 0800 UTC 17 June 2019
Temperature: 37.0°C (99°F)
Dewpoint: 15.0°C (59°F) [RH = 27%]
Pressure (altimeter): 29.88 inches Hg (1012.0 mb)
Winds: from the S (190 degrees) at 15 MPH (13 knots; 6.7 m/s)
Visibility: 6 or more miles (10+ km)
Ceiling: ceiling and visibility are OK
Clouds: unknown
Weather: no significant weather observed at this time

METAR text: HSSS 170730Z 21014KT 8000 36/16 Q1012 NOSIG
Conditions at: HSSS (KHARTOUM (CIV/MI, SD) observed 0730 UTC 17 June 2019
Temperature: 36.0°C (97°F)
Dewpoint: 16.0°C (61°F) [RH = 31%]
Pressure (altimeter): 29.88 inches Hg (1012.0 mb)
Winds: from the SSW (210 degrees) at 16 MPH (14 knots; 7.2 m/s)
Visibility: 5 miles ( 8 km)
Ceiling: unknown
Clouds: missing
Weather: no significant weather observed at this time

METAR text: HSSS 170700Z 21015KT 6000 35/17 Q1012 NOSIG
Conditions at: HSSS (KHARTOUM (CIV/MI, SD) observed 0700 UTC 17 June 2019
Temperature: 35.0°C (95°F)
Dewpoint: 17.0°C (63°F) [RH = 34%]
Pressure (altimeter): 29.88 inches Hg (1012.0 mb)
Winds: from the SSW (210 degrees) at 17 MPH (15 knots; 7.7 m/s)
Visibility: 4 miles ( 6 km)
Ceiling: unknown
Clouds: missing
Weather: no significant weather observed at this time

METAR text: HSSS 170600Z 21012KT CAVOK 33/18 Q1012 NOSIG
Conditions at: HSSS (KHARTOUM (CIV/MI, SD) observed 0600 UTC 17 June 2019
Temperature: 33.0°C (91°F)
Dewpoint: 18.0°C (64°F) [RH = 41%]
Pressure (altimeter): 29.88 inches Hg (1012.0 mb)
Winds: from the SSW (210 degrees) at 14 MPH (12 knots; 6.2 m/s)
Visibility: 6 or more miles (10+ km)
Ceiling: ceiling and visibility are OK
Clouds: unknown
Weather: no significant weather observed at this time

METAR text: HSSS 170500Z 21012KT CAVOK 32/17 Q1011 NOSIG
Conditions at: HSSS (KHARTOUM (CIV/MI, SD) observed 0500 UTC 17 June 2019
Temperature: 32.0°C (90°F)
Dewpoint: 17.0°C (63°F) [RH = 41%]
Pressure (altimeter): 29.85 inches Hg (1011.0 mb)
Winds: from the SSW (210 degrees) at 14 MPH (12 knots; 6.2 m/s)
Visibility: 6 or more miles (10+ km)
Ceiling: ceiling and visibility are OK
Clouds: unknown
Weather: no significant weather observed at this time

METAR text: HSSS 170430Z 22008KT CAVOK 31/17 Q1010 NOSIG
Conditions at: HSSS (KHARTOUM (CIV/MI, SD) observed 0430 UTC 17 June 2019
Temperature: 31.0°C (88°F)
Dewpoint: 17.0°C (63°F) [RH = 43%]
Pressure (altimeter): 29.82 inches Hg (1010.0 mb)
Winds: from the SW (220 degrees) at 9 MPH (8 knots; 4.1 m/s)
Visibility: 6 or more miles (10+ km)
Ceiling: ceiling and visibility are OK
Clouds: unknown
Weather: no significant weather observed at this time

METAR text: HSSS 170400Z 21008KT CAVOK 31/15 Q1009 NOSIG
Conditions at: HSSS (KHARTOUM (CIV/MI, SD) observed 0400 UTC 17 June 2019
Temperature: 31.0°C (88°F)
Dewpoint: 15.0°C (59°F) [RH = 38%]
Pressure (altimeter): 29.79 inches Hg (1009.0 mb)
Winds: from the SSW (210 degrees) at 9 MPH (8 knots; 4.1 m/s)
Visibility: 6 or more miles (10+ km)
Ceiling: ceiling and visibility are OK
Clouds: unknown
Weather: no significant weather observed at this time

METAR text: HSSS 170330Z 22006KT CAVOK 30/14 Q1009 NOSIG
Conditions at: HSSS (KHARTOUM (CIV/MI, SD) observed 0330 UTC 17 June 2019
Temperature: 30.0°C (86°F)
Dewpoint: 14.0°C (57°F) [RH = 38%]
Pressure (altimeter): 29.79 inches Hg (1009.0 mb)
Winds: from the SW (220 degrees) at 7 MPH (6 knots; 3.1 m/s)
Visibility: 6 or more miles (10+ km)
Ceiling: ceiling and visibility are OK
Clouds: unknown
Weather: no significant weather observed at this time

METAR text: HSSS 170300Z 21006KT CAVOK 30/14 Q1009 NOSIG
Conditions at: HSSS (KHARTOUM (CIV/MI, SD) observed 0300 UTC 17 June 2019
Temperature: 30.0°C (86°F)
Dewpoint: 14.0°C (57°F) [RH = 38%]
Pressure (altimeter): 29.79 inches Hg (1009.0 mb)
Winds: from the SSW (210 degrees) at 7 MPH (6 knots; 3.1 m/s)
Visibility: 6 or more miles (10+ km)
Ceiling: ceiling and visibility are OK
Clouds: unknown
Weather: no significant weather observed at this time

METAR text: HSSS 170230Z 18008KT CAVOK 30/08 Q1008 NOSIG
Conditions at: HSSS (KHARTOUM (CIV/MI, SD) observed 0230 UTC 17 June 2019
Temperature: 30.0°C (86°F)
Dewpoint: 8.0°C (46°F) [RH = 25%]
Pressure (altimeter): 29.76 inches Hg (1008.0 mb)
Winds: from the S (180 degrees) at 9 MPH (8 knots; 4.1 m/s)
Visibility: 6 or more miles (10+ km)
Ceiling: ceiling and visibility are OK
Clouds: unknown
Weather: no significant weather observed at this time

METAR text: HSSS 170200Z 19008KT CAVOK 31/08 Q1008 NOSIG
Conditions at: HSSS (KHARTOUM (CIV/MI, SD) observed 0200 UTC 17 June 2019
Temperature: 31.0°C (88°F)
Dewpoint: 8.0°C (46°F) [RH = 24%]
Pressure (altimeter): 29.76 inches Hg (1008.0 mb)
Winds: from the S (190 degrees) at 9 MPH (8 knots; 4.1 m/s)
Visibility: 6 or more miles (10+ km)
Ceiling: ceiling and visibility are OK
Clouds: unknown
Weather: no significant weather observed at this time

METAR text: HSSS 170130Z 17006KT 8000 30/06 Q1008 NOSIG
Conditions at: HSSS (KHARTOUM (CIV/MI, SD) observed 0130 UTC 17 June 2019
Temperature: 30.0°C (86°F)
Dewpoint: 6.0°C (43°F) [RH = 22%]
Pressure (altimeter): 29.76 inches Hg (1008.0 mb)
Winds: from the S (170 degrees) at 7 MPH (6 knots; 3.1 m/s)
Visibility: 5 miles ( 8 km)
Ceiling: unknown
Clouds: missing
Weather: no significant weather observed at this time

METAR text: HSSS 170100Z 19006KT 6000 30/06 Q1008 TEMPO 6000
Conditions at: HSSS (KHARTOUM (CIV/MI, SD) observed 0100 UTC 17 June 2019
Temperature: 30.0°C (86°F)
Dewpoint: 6.0°C (43°F) [RH = 22%]
Pressure (altimeter): 29.76 inches Hg (1008.0 mb)
Winds: from the S (190 degrees) at 7 MPH (6 knots; 3.1 m/s)
Visibility: 4 miles ( 6 km)
Ceiling: unknown
Clouds: missing
Weather: no significant weather observed at this time

METAR text: HSSS 170030Z 21004KT 6000 31/08 Q1008 NOSIG
Conditions at: HSSS (KHARTOUM (CIV/MI, SD) observed 0030 UTC 17 June 2019
Temperature: 31.0°C (88°F)
Dewpoint: 8.0°C (46°F) [RH = 24%]
Pressure (altimeter): 29.76 inches Hg (1008.0 mb)
Winds: from the SSW (210 degrees) at 5 MPH (4 knots; 2.1 m/s)
Visibility: 4 miles ( 6 km)
Ceiling: unknown
Clouds: missing
Weather: no significant weather observed at this time

METAR text: HSSS 162330Z 00000KT 7000 31/08 Q1009 NOSIG
Conditions at: HSSS (KHARTOUM (CIV/MI, SD) observed 2330 UTC 16 June 2019
Temperature: 31.0°C (88°F)
Dewpoint: 8.0°C (46°F) [RH = 24%]
Pressure (altimeter): 29.79 inches Hg (1009.0 mb)
Winds: calm
Visibility: 4 miles ( 7 km)
Ceiling: unknown
Clouds: missing
Weather: no significant weather observed at this time

METAR text: HSSS 162300Z 00000KT 6000 32/10 Q1009 NOSIG
Conditions at: HSSS (KHARTOUM (CIV/MI, SD) observed 2300 UTC 16 June 2019
Temperature: 32.0°C (90°F)
Dewpoint: 10.0°C (50°F) [RH = 26%]
Pressure (altimeter): 29.79 inches Hg (1009.0 mb)
Winds: calm
Visibility: 4 miles ( 6 km)
Ceiling: unknown
Clouds: missing
Weather: no significant weather observed at this time

METAR text: HSSS 162230Z 00000KT 6000 32/07 Q1009 NOSIG
Conditions at: HSSS (KHARTOUM (CIV/MI, SD) observed 2230 UTC 16 June 2019
Temperature: 32.0°C (90°F)
Dewpoint: 7.0°C (45°F) [RH = 21%]
Pressure (altimeter): 29.79 inches Hg (1009.0 mb)
Winds: calm
Visibility: 4 miles ( 6 km)
Ceiling: unknown
Clouds: missing
Weather: no significant weather observed at this time

METAR text: HSSS 162200Z 00000KT 6000 32/07 Q1010 NOSIG
Conditions at: HSSS (KHARTOUM (CIV/MI, SD) observed 2200 UTC 16 June 2019
Temperature: 32.0°C (90°F)
Dewpoint: 7.0°C (45°F) [RH = 21%]
Pressure (altimeter): 29.82 inches Hg (1010.0 mb)
Winds: calm
Visibility: 4 miles ( 6 km)
Ceiling: unknown
Clouds: missing
Weather: no significant weather observed at this time

METAR text: HSSS 162130Z 00000KT 6000 32/08 Q1010 NOSIG
Conditions at: HSSS (KHARTOUM (CIV/MI, SD) observed 2130 UTC 16 June 2019
Temperature: 32.0°C (90°F)
Dewpoint: 8.0°C (46°F) [RH = 23%]
Pressure (altimeter): 29.82 inches Hg (1010.0 mb)
Winds: calm
Visibility: 4 miles ( 6 km)
Ceiling: unknown
Clouds: missing
Weather: no significant weather observed at this time

METAR text: HSSS 162100Z 00000KT 6000 33/08 Q1010 TEMP 4000 BLSA
Conditions at: HSSS (KHARTOUM (CIV/MI, SD) observed 2100 UTC 16 June 2019
Temperature: 33.0°C (91°F)
Dewpoint: 8.0°C (46°F) [RH = 21%]
Pressure (altimeter): 29.82 inches Hg (1010.0 mb)
Winds: calm
Visibility: 4 miles ( 6 km)
Ceiling: unknown
Clouds: missing
Weather: BLSA  (blowing sand)

METAR text: HSSS 162030Z 00000KT 8000 33/08 Q1010 NOSIG
Conditions at: HSSS (KHARTOUM (CIV/MI, SD) observed 2030 UTC 16 June 2019
Temperature: 33.0°C (91°F)
Dewpoint: 8.0°C (46°F) [RH = 21%]
Pressure (altimeter): 29.82 inches Hg (1010.0 mb)
Winds: calm
Visibility: 5 miles ( 8 km)
Ceiling: unknown
Clouds: missing
Weather: no significant weather observed at this time

METAR text: HSSS 162000Z 00000KT 8000 34/09 G1010 NOSIG
Conditions at: HSSS (KHARTOUM (CIV/MI, SD) observed 2000 UTC 16 June 2019
Temperature: 34.0°C (93°F)
Dewpoint: 9.0°C (48°F) [RH = 22%]
Pressure (altimeter): missing
Winds: calm
Visibility: 5 miles ( 8 km)
Ceiling: unknown
Clouds: missing
Weather: no significant weather observed at this time

METAR text: HSSS 161930Z 00000KT 8000 34/08 Q1009 NOSIG
Conditions at: HSSS (KHARTOUM (CIV/MI, SD) observed 1930 UTC 16 June 2019
Temperature: 34.0°C (93°F)
Dewpoint: 8.0°C (46°F) [RH = 20%]
Pressure (altimeter): 29.79 inches Hg (1009.0 mb)
Winds: calm
Visibility: 5 miles ( 8 km)
Ceiling: unknown
Clouds: missing
Weather: no significant weather observed at this time

METAR text: HSSS 161900Z 00000KT CAVOK 35/08 Q1009 TEMPO 6000
Conditions at: HSSS (KHARTOUM (CIV/MI, SD) observed 1900 UTC 16 June 2019
Temperature: 35.0°C (95°F)
Dewpoint: 8.0°C (46°F) [RH = 19%]
Pressure (altimeter): 29.79 inches Hg (1009.0 mb)
Winds: calm
Visibility: 6 or more miles (10+ km)
Ceiling: ceiling and visibility are OK
Clouds: unknown
Weather: no significant weather observed at this time

METAR text: HSSS 161830Z 00000KT CAVOK 36/05 Q1010 NOSIG
Conditions at: HSSS (KHARTOUM (CIV/MI, SD) observed 1830 UTC 16 June 2019
Temperature: 36.0°C (97°F)
Dewpoint: 5.0°C (41°F) [RH = 15%]
Pressure (altimeter): 29.82 inches Hg (1010.0 mb)
Winds: calm
Visibility: 6 or more miles (10+ km)
Ceiling: ceiling and visibility are OK
Clouds: unknown
Weather: no significant weather observed at this time

METAR text: HSSS 161800Z 00000KT CAVOK 36/06 Q1010 NOSIG
Conditions at: HSSS (KHARTOUM (CIV/MI, SD) observed 1800 UTC 16 June 2019
Temperature: 36.0°C (97°F)
Dewpoint: 6.0°C (43°F) [RH = 16%]
Pressure (altimeter): 29.82 inches Hg (1010.0 mb)
Winds: calm
Visibility: 6 or more miles (10+ km)
Ceiling: ceiling and visibility are OK
Clouds: unknown
Weather: no significant weather observed at this time

METAR text: HSSS 161730Z 00000KT CAVOK 37/02 Q1009 NOSIG
Conditions at: HSSS (KHARTOUM (CIV/MI, SD) observed 1730 UTC 16 June 2019
Temperature: 37.0°C (99°F)
Dewpoint: 2.0°C (36°F) [RH = 11%]
Pressure (altimeter): 29.79 inches Hg (1009.0 mb)
Winds: calm
Visibility: 6 or more miles (10+ km)
Ceiling: ceiling and visibility are OK
Clouds: unknown
Weather: no significant weather observed at this time

METAR text: HSSS 161700Z 30003KT CAVOK 38/03 Q1008 NOSIG
Conditions at: HSSS (KHARTOUM (CIV/MI, SD) observed 1700 UTC 16 June 2019
Temperature: 38.0°C (100°F)
Dewpoint: 3.0°C (37°F) [RH = 11%]
Pressure (altimeter): 29.76 inches Hg (1008.0 mb)
Winds: from the WNW (300 degrees) at 3 MPH (3 knots; 1.5 m/s)
Visibility: 6 or more miles (10+ km)
Ceiling: ceiling and visibility are OK
Clouds: unknown
Weather: no significant weather observed at this time

METAR text: HSSS 161630Z 32005KT CAVOK 39/03 Q1007 NOSIG
Conditions at: HSSS (KHARTOUM (CIV/MI, SD) observed 1630 UTC 16 June 2019
Temperature: 39.0°C (102°F)
Dewpoint: 3.0°C (37°F) [RH = 11%]
Pressure (altimeter): 29.73 inches Hg (1007.0 mb)
Winds: from the NW (320 degrees) at 6 MPH (5 knots; 2.6 m/s)
Visibility: 6 or more miles (10+ km)
Ceiling: ceiling and visibility are OK
Clouds: unknown
Weather: no significant weather observed at this time

METAR text: HSSS 161600Z 28002KT CAVOK 39/02 Q1007 NOSIG
Conditions at: HSSS (KHARTOUM (CIV/MI, SD) observed 1600 UTC 16 June 2019
Temperature: 39.0°C (102°F)
Dewpoint: 2.0°C (36°F) [RH = 10%]
Pressure (altimeter): 29.73 inches Hg (1007.0 mb)
Winds: from the W (280 degrees) at 2 MPH (2 knots; 1.0 m/s)
Visibility: 6 or more miles (10+ km)
Ceiling: ceiling and visibility are OK
Clouds: unknown
Weather: no significant weather observed at this time

METAR text: HSSS 161530Z 27004KT CAVOK 41/07 Q1007 NOSIG
Conditions at: HSSS (KHARTOUM (CIV/MI, SD) observed 1530 UTC 16 June 2019
Temperature: 41.0°C (106°F)
Dewpoint: 7.0°C (45°F) [RH = 13%]
Pressure (altimeter): 29.73 inches Hg (1007.0 mb)
Winds: from the W (270 degrees) at 5 MPH (4 knots; 2.1 m/s)
Visibility: 6 or more miles (10+ km)
Ceiling: ceiling and visibility are OK
Clouds: unknown
Weather: no significant weather observed at this time

METAR text: HSSS 161500Z 25008KT CAVOK 41/05 Q1007 NOSIG
Conditions at: HSSS (KHARTOUM (CIV/MI, SD) observed 1500 UTC 16 June 2019
Temperature: 41.0°C (106°F)
Dewpoint: 5.0°C (41°F) [RH = 11%]
Pressure (altimeter): 29.73 inches Hg (1007.0 mb)
Winds: from the WSW (250 degrees) at 9 MPH (8 knots; 4.1 m/s)
Visibility: 6 or more miles (10+ km)
Ceiling: ceiling and visibility are OK
Clouds: unknown
Weather: no significant weather observed at this time

METAR text: HSSS 161430Z 24009KT CAVOK 41/05 Q1007 NOSIG
Conditions at: HSSS (KHARTOUM (CIV/MI, SD) observed 1430 UTC 16 June 2019
Temperature: 41.0°C (106°F)
Dewpoint: 5.0°C (41°F) [RH = 11%]
Pressure (altimeter): 29.73 inches Hg (1007.0 mb)
Winds: from the WSW (240 degrees) at 10 MPH (9 knots; 4.6 m/s)
Visibility: 6 or more miles (10+ km)
Ceiling: ceiling and visibility are OK
Clouds: unknown
Weather: no significant weather observed at this time

METAR text: HSSS 161400Z 25007KT CAVOK 41/05 Q1007 NOSIG
Conditions at: HSSS (KHARTOUM (CIV/MI, SD) observed 1400 UTC 16 June 2019
Temperature: 41.0°C (106°F)
Dewpoint: 5.0°C (41°F) [RH = 11%]
Pressure (altimeter): 29.73 inches Hg (1007.0 mb)
Winds: from the WSW (250 degrees) at 8 MPH (7 knots; 3.6 m/s)
Visibility: 6 or more miles (10+ km)
Ceiling: ceiling and visibility are OK
Clouds: unknown
Weather: no significant weather observed at this time

METAR text: HSSS 161330Z 26008KT CAVOK 41/07 Q1008 NOSIG
Conditions at: HSSS (KHARTOUM (CIV/MI, SD) observed 1330 UTC 16 June 2019
Temperature: 41.0°C (106°F)
Dewpoint: 7.0°C (45°F) [RH = 13%]
Pressure (altimeter): 29.76 inches Hg (1008.0 mb)
Winds: from the W (260 degrees) at 9 MPH (8 knots; 4.1 m/s)
Visibility: 6 or more miles (10+ km)
Ceiling: ceiling and visibility are OK
Clouds: unknown
Weather: no significant weather observed at this time

METAR text: HSSS 161300Z 24006KT CAVOK 41/07 Q1008 NOSIG
Conditions at: HSSS (KHARTOUM (CIV/MI, SD) observed 1300 UTC 16 June 2019
Temperature: 41.0°C (106°F)
Dewpoint: 7.0°C (45°F) [RH = 13%]
Pressure (altimeter): 29.76 inches Hg (1008.0 mb)
Winds: from the WSW (240 degrees) at 7 MPH (6 knots; 3.1 m/s)
Visibility: 6 or more miles (10+ km)
Ceiling: ceiling and visibility are OK
Clouds: unknown
Weather: no significant weather observed at this time

METAR text: HSSS 161230Z 25007KT CAVOK 41/07 Q1008 NOSIG
Conditions at: HSSS (KHARTOUM (CIV/MI, SD) observed 1230 UTC 16 June 2019
Temperature: 41.0°C (106°F)
Dewpoint: 7.0°C (45°F) [RH = 13%]
Pressure (altimeter): 29.76 inches Hg (1008.0 mb)
Winds: from the WSW (250 degrees) at 8 MPH (7 knots; 3.6 m/s)
Visibility: 6 or more miles (10+ km)
Ceiling: ceiling and visibility are OK
Clouds: unknown
Weather: no significant weather observed at this time

METAR text: HSSS 161200Z 26009KT CAVOK 41/07 Q1009 NOSIG
Conditions at: HSSS (KHARTOUM (CIV/MI, SD) observed 1200 UTC 16 June 2019
Temperature: 41.0°C (106°F)
Dewpoint: 7.0°C (45°F) [RH = 13%]
Pressure (altimeter): 29.79 inches Hg (1009.0 mb)
Winds: from the W (260 degrees) at 10 MPH (9 knots; 4.6 m/s)
Visibility: 6 or more miles (10+ km)
Ceiling: ceiling and visibility are OK
Clouds: unknown
Weather: no significant weather observed at this time

METAR text: HSSS 161130Z 24006KT CAVOK 40/05 Q1009 NOSIG
Conditions at: HSSS (KHARTOUM (CIV/MI, SD) observed 1130 UTC 16 June 2019
Temperature: 40.0°C (104°F)
Dewpoint: 5.0°C (41°F) [RH = 12%]
Pressure (altimeter): 29.79 inches Hg (1009.0 mb)
Winds: from the WSW (240 degrees) at 7 MPH (6 knots; 3.1 m/s)
Visibility: 6 or more miles (10+ km)
Ceiling: ceiling and visibility are OK
Clouds: unknown
Weather: no significant weather observed at this time

METAR text: HSSS 161100Z 24005KT CAVOK 39/05 Q1009 NOSIG
Conditions at: HSSS (KHARTOUM (CIV/MI, SD) observed 1100 UTC 16 June 2019
Temperature: 39.0°C (102°F)
Dewpoint: 5.0°C (41°F) [RH = 12%]
Pressure (altimeter): 29.79 inches Hg (1009.0 mb)
Winds: from the WSW (240 degrees) at 6 MPH (5 knots; 2.6 m/s)
Visibility: 6 or more miles (10+ km)
Ceiling: ceiling and visibility are OK
Clouds: unknown
Weather: no significant weather observed at this time

METAR text: HSSS 161030Z 25008KT CAVOK 40/05 Q1010 NOSIG
Conditions at: HSSS (KHARTOUM (CIV/MI, SD) observed 1030 UTC 16 June 2019
Temperature: 40.0°C (104°F)
Dewpoint: 5.0°C (41°F) [RH = 12%]
Pressure (altimeter): 29.82 inches Hg (1010.0 mb)
Winds: from the WSW (250 degrees) at 9 MPH (8 knots; 4.1 m/s)
Visibility: 6 or more miles (10+ km)
Ceiling: ceiling and visibility are OK
Clouds: unknown
Weather: no significant weather observed at this time

METAR text: HSSS 161000Z 30008KT CAVOK 39/05 Q1010 NOSIG
Conditions at: HSSS (KHARTOUM (CIV/MI, SD) observed 1000 UTC 16 June 2019
Temperature: 39.0°C (102°F)
Dewpoint: 5.0°C (41°F) [RH = 12%]
Pressure (altimeter): 29.82 inches Hg (1010.0 mb)
Winds: from the WNW (300 degrees) at 9 MPH (8 knots; 4.1 m/s)
Visibility: 6 or more miles (10+ km)
Ceiling: ceiling and visibility are OK
Clouds: unknown
Weather: no significant weather observed at this time

METAR text: HSSS 160930Z 00000KT CAVOK 37/08 Q1010 NOSIG
Conditions at: HSSS (KHARTOUM (CIV/MI, SD) observed 0930 UTC 16 June 2019
Temperature: 37.0°C (99°F)
Dewpoint: 8.0°C (46°F) [RH = 17%]
Pressure (altimeter): 29.82 inches Hg (1010.0 mb)
Winds: calm
Visibility: 6 or more miles (10+ km)
Ceiling: ceiling and visibility are OK
Clouds: unknown
Weather: no significant weather observed at this time

METAR text: HSSS 160900Z 00000KT CAVOK 37/08 Q1011 NOSIG
Conditions at: HSSS (KHARTOUM (CIV/MI, SD) observed 0900 UTC 16 June 2019
Temperature: 37.0°C (99°F)
Dewpoint: 8.0°C (46°F) [RH = 17%]
Pressure (altimeter): 29.85 inches Hg (1011.0 mb)
Winds: calm
Visibility: 6 or more miles (10+ km)
Ceiling: ceiling and visibility are OK
Clouds: unknown
Weather: no significant weather observed at this time

METAR text: HSSS 160830Z 26006KT CAVOK 37/11 Q1011 NOSIG
Conditions at: HSSS (KHARTOUM (CIV/MI, SD) observed 0830 UTC 16 June 2019
Temperature: 37.0°C (99°F)
Dewpoint: 11.0°C (52°F) [RH = 21%]
Pressure (altimeter): 29.85 inches Hg (1011.0 mb)
Winds: from the W (260 degrees) at 7 MPH (6 knots; 3.1 m/s)
Visibility: 6 or more miles (10+ km)
Ceiling: ceiling and visibility are OK
Clouds: unknown
Weather: no significant weather observed at this time

METAR text: HSSS 160800Z 20004KT CAVOK 35/04 Q1011 NOSI
Conditions at: HSSS (KHARTOUM (CIV/MI, SD) observed 0800 UTC 16 June 2019
Temperature: 35.0°C (95°F)
Dewpoint: 4.0°C (39°F) [RH = 14%]
Pressure (altimeter): 29.85 inches Hg (1011.0 mb)
Winds: from the SSW (200 degrees) at 5 MPH (4 knots; 2.1 m/s)
Visibility: 6 or more miles (10+ km)
Ceiling: ceiling and visibility are OK
Clouds: unknown
Weather: no significant weather observed at this time

METAR text: HSSS 160730Z 19009KT CAVOK 34/17 Q1011 NOSIG
Conditions at: HSSS (KHARTOUM (CIV/MI, SD) observed 0730 UTC 16 June 2019
Temperature: 34.0°C (93°F)
Dewpoint: 17.0°C (63°F) [RH = 36%]
Pressure (altimeter): 29.85 inches Hg (1011.0 mb)
Winds: from the S (190 degrees) at 10 MPH (9 knots; 4.6 m/s)
Visibility: 6 or more miles (10+ km)
Ceiling: ceiling and visibility are OK
Clouds: unknown
Weather: no significant weather observed at this time

METAR text: HSSS 160700Z 22010KT CAVOK 33/16 Q1011 NOSIG
Conditions at: HSSS (KHARTOUM (CIV/MI, SD) observed 0700 UTC 16 June 2019
Temperature: 33.0°C (91°F)
Dewpoint: 16.0°C (61°F) [RH = 36%]
Pressure (altimeter): 29.85 inches Hg (1011.0 mb)
Winds: from the SW (220 degrees) at 12 MPH (10 knots; 5.1 m/s)
Visibility: 6 or more miles (10+ km)
Ceiling: ceiling and visibility are OK
Clouds: unknown
Weather: no significant weather observed at this time

METAR text: HSSS 160630Z 18011KT CAVOK 32/18 Q1011 NOSIG
Conditions at: HSSS (KHARTOUM (CIV/MI, SD) observed 0630 UTC 16 June 2019
Temperature: 32.0°C (90°F)
Dewpoint: 18.0°C (64°F) [RH = 43%]
Pressure (altimeter): 29.85 inches Hg (1011.0 mb)
Winds: from the S (180 degrees) at 13 MPH (11 knots; 5.7 m/s)
Visibility: 6 or more miles (10+ km)
Ceiling: ceiling and visibility are OK
Clouds: unknown
Weather: no significant weather observed at this time

METAR text: HSSS 160600Z 18012KT CAVOK 31/18 Q1011 NOSIG
Conditions at: HSSS (KHARTOUM (CIV/MI, SD) observed 0600 UTC 16 June 2019
Temperature: 31.0°C (88°F)
Dewpoint: 18.0°C (64°F) [RH = 46%]
Pressure (altimeter): 29.85 inches Hg (1011.0 mb)
Winds: from the S (180 degrees) at 14 MPH (12 knots; 6.2 m/s)
Visibility: 6 or more miles (10+ km)
Ceiling: ceiling and visibility are OK
Clouds: unknown
Weather: no significant weather observed at this time

METAR text: HSSS 160530Z 15011KT CAVOK 30/09 Q1011 NOSIG
Conditions at: HSSS (KHARTOUM (CIV/MI, SD) observed 0530 UTC 16 June 2019
Temperature: 30.0°C (86°F)
Dewpoint: 9.0°C (48°F) [RH = 27%]
Pressure (altimeter): 29.85 inches Hg (1011.0 mb)
Winds: from the SSE (150 degrees) at 13 MPH (11 knots; 5.7 m/s)
Visibility: 6 or more miles (10+ km)
Ceiling: ceiling and visibility are OK
Clouds: unknown
Weather: no significant weather observed at this time

METAR text: HSSS 160500Z 14010KT 6000 29/04 Q1011 NOSIG
Conditions at: HSSS (KHARTOUM (CIV/MI, SD) observed 0500 UTC 16 June 2019
Temperature: 29.0°C (84°F)
Dewpoint: 4.0°C (39°F) [RH = 20%]
Pressure (altimeter): 29.85 inches Hg (1011.0 mb)
Winds: from the SE (140 degrees) at 12 MPH (10 knots; 5.1 m/s)
Visibility: 4 miles ( 6 km)
Ceiling: unknown
Clouds: missing
Weather: no significant weather observed at this time

METAR text: HSSS 160430Z 14009KT 6000 28/06 Q1011 NOSIG
Conditions at: HSSS (KHARTOUM (CIV/MI, SD) observed 0430 UTC 16 June 2019
Temperature: 28.0°C (82°F)
Dewpoint: 6.0°C (43°F) [RH = 25%]
Pressure (altimeter): 29.85 inches Hg (1011.0 mb)
Winds: from the SE (140 degrees) at 10 MPH (9 knots; 4.6 m/s)
Visibility: 4 miles ( 6 km)
Ceiling: unknown
Clouds: missing
Weather: no significant weather observed at this time

METAR text: HSSS 160400Z 12006KT 6000 28/04 Q1011 NOSIG
Conditions at: HSSS (KHARTOUM (CIV/MI, SD) observed 0400 UTC 16 June 2019
Temperature: 28.0°C (82°F)
Dewpoint: 4.0°C (39°F) [RH = 22%]
Pressure (altimeter): 29.85 inches Hg (1011.0 mb)
Winds: from the ESE (120 degrees) at 7 MPH (6 knots; 3.1 m/s)
Visibility: 4 miles ( 6 km)
Ceiling: unknown
Clouds: missing
Weather: no significant weather observed at this time

METAR text: HSSS 160330Z 16005KT 6000 28/04 Q1010 TEMPO 4000 HZ
Conditions at: HSSS (KHARTOUM (CIV/MI, SD) observed 0330 UTC 16 June 2019
Temperature: 28.0°C (82°F)
Dewpoint: 4.0°C (39°F) [RH = 22%]
Pressure (altimeter): 29.82 inches Hg (1010.0 mb)
Winds: from the SSE (160 degrees) at 6 MPH (5 knots; 2.6 m/s)
Visibility: 4 miles ( 6 km)
Ceiling: unknown
Clouds: missing
Weather: no significant weather observed at this time

METAR text: HSSS 160300Z 16003KT CAVOK 28/04 Q1010 NOSIG
Conditions at: HSSS (KHARTOUM (CIV/MI, SD) observed 0300 UTC 16 June 2019
Temperature: 28.0°C (82°F)
Dewpoint: 4.0°C (39°F) [RH = 22%]
Pressure (altimeter): 29.82 inches Hg (1010.0 mb)
Winds: from the SSE (160 degrees) at 3 MPH (3 knots; 1.5 m/s)
Visibility: 6 or more miles (10+ km)
Ceiling: ceiling and visibility are OK
Clouds: unknown
Weather: no significant weather observed at this time

METAR text: HSSS 160200Z 21002KT CAVOK 29/03 Q1009 NOSIG
Conditions at: HSSS (KHARTOUM (CIV/MI, SD) observed 0200 UTC 16 June 2019
Temperature: 29.0°C (84°F)
Dewpoint: 3.0°C (37°F) [RH = 19%]
Pressure (altimeter): 29.79 inches Hg (1009.0 mb)
Winds: from the SSW (210 degrees) at 2 MPH (2 knots; 1.0 m/s)
Visibility: 6 or more miles (10+ km)
Ceiling: ceiling and visibility are OK
Clouds: unknown
Weather: no significant weather observed at this time

METAR text: HSSS 160130Z 00000KT CAVOK 30/03 Q1009 NOSIG
Conditions at: HSSS (KHARTOUM (CIV/MI, SD) observed 0130 UTC 16 June 2019
Temperature: 30.0°C (86°F)
Dewpoint: 3.0°C (37°F) [RH = 18%]
Pressure (altimeter): 29.79 inches Hg (1009.0 mb)
Winds: calm
Visibility: 6 or more miles (10+ km)
Ceiling: ceiling and visibility are OK
Clouds: unknown
Weather: no significant weather observed at this time

METAR text: HSSS 160100Z 29002KT CAVOK 30/03 Q1009 NOSIG
Conditions at: HSSS (KHARTOUM (CIV/MI, SD) observed 0100 UTC 16 June 2019
Temperature: 30.0°C (86°F)
Dewpoint: 3.0°C (37°F) [RH = 18%]
Pressure (altimeter): 29.79 inches Hg (1009.0 mb)
Winds: from the WNW (290 degrees) at 2 MPH (2 knots; 1.0 m/s)
Visibility: 6 or more miles (10+ km)
Ceiling: ceiling and visibility are OK
Clouds: unknown
Weather: no significant weather observed at this time

METAR text: HSSS 160030Z 28003KT CAVOK 31/03 Q1009 NOSIG
Conditions at: HSSS (KHARTOUM (CIV/MI, SD) observed 0030 UTC 16 June 2019
Temperature: 31.0°C (88°F)
Dewpoint: 3.0°C (37°F) [RH = 17%]
Pressure (altimeter): 29.79 inches Hg (1009.0 mb)
Winds: from the W (280 degrees) at 3 MPH (3 knots; 1.5 m/s)
Visibility: 6 or more miles (10+ km)
Ceiling: ceiling and visibility are OK
Clouds: unknown
Weather: no significant weather observed at this time

METAR text: HSSS 160000Z 28004KT CAVOK 31/03 Q1009 NOSIG
Conditions at: HSSS (KHARTOUM (CIV/MI, SD) observed 0000 UTC 16 June 2019
Temperature: 31.0°C (88°F)
Dewpoint: 3.0°C (37°F) [RH = 17%]
Pressure (altimeter): 29.79 inches Hg (1009.0 mb)
Winds: from the W (280 degrees) at 5 MPH (4 knots; 2.1 m/s)
Visibility: 6 or more miles (10+ km)
Ceiling: ceiling and visibility are OK
Clouds: unknown
Weather: no significant weather observed at this time

METAR text: HSSS 152330Z 28003KT CAVOK 31/05 Q1009 NOSIG
Conditions at: HSSS (KHARTOUM (CIV/MI, SD) observed 2330 UTC 15 June 2019
Temperature: 31.0°C (88°F)
Dewpoint: 5.0°C (41°F) [RH = 19%]
Pressure (altimeter): 29.79 inches Hg (1009.0 mb)
Winds: from the W (280 degrees) at 3 MPH (3 knots; 1.5 m/s)
Visibility: 6 or more miles (10+ km)
Ceiling: ceiling and visibility are OK
Clouds: unknown
Weather: no significant weather observed at this time

Forecast for: HSSS (KHARTOUM (CIV/MI, SD)
Text: TAF HSSS 171100Z 1712/1818 22012G22KT CAVOK
Forecast period: 1200 UTC 17 June 2019 to 1800 UTC 18 June 2019
Forecast type: FROM: standard forecast or significant change
Winds: from the SW (220 degrees) at 14 MPH (12 knots; 6.2 m/s)
gusting to 25 MPH (22 knots; 11.3 m/s)
Visibility: 6 or more miles 10+ km)
Ceiling: unknown
Clouds: missing
Weather: NSW  (no significant weather)
Text: TEMPO 1715/1721 9999 FEW040 SCT140
Forecast period: 1500 to 2100 UTC 17 June 2019
Forecast type: TEMPORARY: The following changes expected for less than half the time period
Visibility: 6 or more miles 10+ km)
Ceiling: at least 12,000 feet AGL
Clouds: few clouds at 4000 feet AGL
scattered clouds at 14000 feet AGL
Weather: no significant weather forecast for this period